createdAt,value
2022-08-31T00:00:05.613Z,71.28
2022-08-31T00:05:10.781Z,71.37
2022-08-31T00:10:15.247Z,71.02
2022-08-31T00:15:22.043Z,71.14
2022-08-31T00:20:33.251Z,71.68
2022-08-31T00:25:39.767Z,71.62
2022-08-31T00:30:43.949Z,71.57
2022-08-31T00:35:46.944Z,71.95
2022-08-31T00:40:49.863Z,71.99
2022-08-31T00:45:52.842Z,71.96
2022-08-31T00:50:57.449Z,71.32
2022-08-31T00:56:00.894Z,71.74
2022-08-31T01:01:08.263Z,71.84
2022-08-31T01:06:11.753Z,72.08
2022-08-31T01:11:16.338Z,72.15
2022-08-31T01:16:53.554Z,72.88
2022-08-31T01:22:07.350Z,73.15
2022-08-31T01:27:12.019Z,73.67
2022-08-31T01:32:14.996Z,73.38
2022-08-31T01:37:17.975Z,73.31
2022-08-31T01:42:20.907Z,73.46
2022-08-31T01:47:23.693Z,73.00
2022-08-31T01:52:28.636Z,73.24
2022-08-31T01:57:33.975Z,72.50
2022-08-31T02:02:37.880Z,72.68
2022-08-31T02:07:41.957Z,72.24
2022-08-31T02:12:45.008Z,72.50
2022-08-31T02:17:49.335Z,72.59
2022-08-31T02:22:55.626Z,72.46
2022-08-31T02:27:58.896Z,72.48
2022-08-31T02:33:01.821Z,72.56
2022-08-31T02:38:06.879Z,72.68
2022-08-31T02:43:14.214Z,72.67
2022-08-31T02:48:27.433Z,72.56
2022-08-31T02:53:30.429Z,72.81
2022-08-31T02:58:38.436Z,73.51
2022-08-31T03:03:41.314Z,73.61
2022-08-31T03:08:50.680Z,73.70
2022-08-31T03:13:58.289Z,74.01
2022-08-31T03:19:01.809Z,73.91
2022-08-31T03:24:05.256Z,73.88
2022-08-31T03:29:08.055Z,74.11
2022-08-31T03:34:10.978Z,74.45
2022-08-31T03:39:18.786Z,74.96
2022-08-31T03:44:23.551Z,74.79
2022-08-31T03:49:27.108Z,74.78
2022-08-31T03:54:30.198Z,74.59
2022-08-31T03:59:33.602Z,74.56
2022-08-31T04:04:36.466Z,74.41
2022-08-31T04:09:39.397Z,74.85
2022-08-31T04:14:42.818Z,74.57
2022-08-31T04:19:45.674Z,75.06
2022-08-31T04:24:48.520Z,75.38
2022-08-31T04:29:51.240Z,76.19
2022-08-31T04:34:56.411Z,76.80
2022-08-31T04:40:01.433Z,77.03
2022-08-31T04:45:05.391Z,76.86
2022-08-31T04:50:13.922Z,76.81
2022-08-31T04:55:17.613Z,75.91
2022-08-31T05:00:22.129Z,75.86
2022-08-31T05:05:25.090Z,75.28
2022-08-31T05:10:27.873Z,75.44
2022-08-31T05:15:30.850Z,75.68
2022-08-31T05:20:33.844Z,75.42
2022-08-31T05:25:40.580Z,75.31
2022-08-31T05:30:47.625Z,75.35
2022-08-31T05:35:50.793Z,75.11
2022-08-31T05:40:56.154Z,74.63
2022-08-31T05:45:59.700Z,74.35
2022-08-31T05:51:09.622Z,73.43
2022-08-31T05:56:23.456Z,72.95
2022-08-31T06:01:30.567Z,72.89
2022-08-31T06:06:34.588Z,71.40
2022-08-31T06:11:42.314Z,70.83
2022-08-31T06:16:45.851Z,69.94
2022-08-31T06:21:50.271Z,68.77
2022-08-31T06:27:00.142Z,67.25
2022-08-31T06:32:08.094Z,66.86
2022-08-31T06:37:18.938Z,66.48
2022-08-31T06:42:21.963Z,65.24
2022-08-31T06:47:26.130Z,65.13
2022-08-31T06:52:28.983Z,63.83
2022-08-31T06:57:31.972Z,63.74
2022-08-31T07:02:39.214Z,62.76
2022-08-31T07:07:41.949Z,61.15
2022-08-31T07:12:44.828Z,57.59
2022-08-31T07:17:49.832Z,57.08
2022-08-31T07:22:52.677Z,56.43
2022-08-31T07:27:55.688Z,55.88
2022-08-31T07:32:58.518Z,54.53
2022-08-31T07:38:19.711Z,53.35
2022-08-31T07:43:22.539Z,52.98
2022-08-31T07:48:26.212Z,52.63
2022-08-31T07:53:28.965Z,48.96
2022-08-31T07:58:32.359Z,47.34
2022-08-31T08:03:35.301Z,46.72
2022-08-31T08:08:38.136Z,48.00
2022-08-31T08:13:40.975Z,48.71
2022-08-31T08:18:44.094Z,49.16
2022-08-31T08:23:46.911Z,48.50
2022-08-31T08:28:50.439Z,48.43
2022-08-31T08:33:53.220Z,49.07
2022-08-31T08:38:57.402Z,49.23
2022-08-31T08:44:05.115Z,49.02
2022-08-31T08:49:28.518Z,49.84
2022-08-31T08:54:45.403Z,49.94
2022-08-31T08:59:51.093Z,49.48
2022-08-31T09:05:26.402Z,48.69
2022-08-31T09:10:42.167Z,47.10
2022-08-31T09:15:52.829Z,46.12
2022-08-31T09:21:22.104Z,45.72
2022-08-31T09:26:29.867Z,43.67
2022-08-31T09:31:39.757Z,44.20
2022-08-31T09:36:42.752Z,43.64
2022-08-31T09:41:47.128Z,42.40
2022-08-31T09:46:56.804Z,42.15
2022-08-31T09:52:46.301Z,42.17
2022-08-31T09:57:59.183Z,42.00
2022-08-31T10:03:19.350Z,40.27
2022-08-31T10:08:38.619Z,39.89
2022-08-31T10:13:58.810Z,39.85
2022-08-31T10:19:32.867Z,39.70
2022-08-31T10:25:04.339Z,40.56
2022-08-31T10:30:38.886Z,38.26
2022-08-31T10:36:00.421Z,38.62
2022-08-31T10:41:28.969Z,37.75
2022-08-31T10:46:34.739Z,39.22
2022-08-31T10:52:00.044Z,38.43
2022-08-31T10:57:40.258Z,38.13
2022-08-31T11:03:05.010Z,37.27
2022-08-31T11:08:37.232Z,38.36
2022-08-31T11:14:04.291Z,38.02
2022-08-31T11:19:15.923Z,35.79
2022-08-31T11:24:56.150Z,35.95
2022-08-31T11:30:24.566Z,36.13
2022-08-31T11:36:06.441Z,34.70
2022-08-31T11:41:11.282Z,35.18
2022-08-31T11:46:26.496Z,34.77
2022-08-31T11:51:40.774Z,35.02
2022-08-31T11:56:47.480Z,36.69
2022-08-31T12:01:50.461Z,36.38
2022-08-31T12:06:54.924Z,35.56
2022-08-31T12:12:24.676Z,35.73
2022-08-31T12:17:38.384Z,34.34
2022-08-31T12:23:30.195Z,35.56
2022-08-31T12:28:49.324Z,34.51
2022-08-31T12:34:18.085Z,33.75
2022-08-31T12:39:28.215Z,34.41
2022-08-31T12:44:41.554Z,34.55
2022-08-31T12:50:08.217Z,33.71
2022-08-31T12:55:28.967Z,33.05
2022-08-31T13:00:39.395Z,33.85
2022-08-31T13:05:46.633Z,33.96
2022-08-31T13:10:50.557Z,34.16
2022-08-31T13:16:05.547Z,34.07
2022-08-31T13:21:09.539Z,34.46
2022-08-31T13:26:20.651Z,35.10
2022-08-31T13:31:35.634Z,35.01
2022-08-31T13:36:53.857Z,35.25
2022-08-31T13:42:05.379Z,35.16
2022-08-31T13:47:25.324Z,35.56
2022-08-31T13:52:30.984Z,35.27
2022-08-31T13:57:35.973Z,34.73
2022-08-31T14:02:39.579Z,35.37
2022-08-31T14:07:44.090Z,35.29
2022-08-31T14:12:50.563Z,35.36
2022-08-31T14:23:25.735Z,35.38
2022-08-31T14:28:40.878Z,35.08
2022-08-31T14:33:44.460Z,36.09
2022-08-31T14:38:48.400Z,35.95
2022-08-31T14:43:51.253Z,36.25
2022-08-31T14:48:59.265Z,36.65
2022-08-31T14:54:02.223Z,36.26
2022-08-31T14:59:12.679Z,35.66
2022-08-31T15:04:20.696Z,36.29
2022-08-31T15:09:24.556Z,36.36
2022-08-31T15:14:31.235Z,35.50
2022-08-31T15:19:35.277Z,34.94
2022-08-31T15:24:45.129Z,34.82
2022-08-31T15:29:51.897Z,35.66
2022-08-31T15:34:58.213Z,36.35
2022-08-31T15:40:04.517Z,37.06
2022-08-31T15:45:09.036Z,37.42
2022-08-31T15:50:12.109Z,38.06
2022-08-31T15:55:21.633Z,38.66
2022-08-31T16:00:29.068Z,38.84
2022-08-31T16:05:43.638Z,39.87
2022-08-31T16:10:48.157Z,40.03
2022-08-31T16:15:52.449Z,41.26
2022-08-31T16:20:56.253Z,41.47
2022-08-31T16:26:00.649Z,41.90
2022-08-31T16:31:03.713Z,42.36
2022-08-31T16:36:07.088Z,42.74
2022-08-31T16:41:11.156Z,42.77
2022-08-31T16:46:39.595Z,42.89
2022-08-31T16:51:39.245Z,43.15
2022-08-31T16:56:43.440Z,43.33
2022-08-31T17:01:58.093Z,43.65
2022-08-31T17:07:01.590Z,44.19
2022-08-31T17:12:08.357Z,44.24
2022-08-31T17:17:18.221Z,45.02
2022-08-31T17:22:31.601Z,44.97
2022-08-31T17:27:35.786Z,45.62
2022-08-31T17:32:45.099Z,46.08
2022-08-31T17:37:50.072Z,46.49
2022-08-31T17:42:57.924Z,46.55
2022-08-31T17:48:02.960Z,47.06
2022-08-31T17:53:06.635Z,47.59
2022-08-31T17:58:09.581Z,47.95
2022-08-31T18:03:12.686Z,48.28
2022-08-31T18:08:15.925Z,48.48
2022-08-31T18:13:24.274Z,48.87
2022-08-31T18:18:27.345Z,49.09
2022-08-31T18:23:30.813Z,49.36
2022-08-31T18:28:33.654Z,49.53
2022-08-31T18:33:37.882Z,49.83
2022-08-31T18:38:40.791Z,50.28
2022-08-31T18:44:01.929Z,50.32
2022-08-31T18:49:12.626Z,50.76
2022-08-31T18:54:16.612Z,50.45
2022-08-31T18:59:20.568Z,50.76
2022-08-31T19:04:23.456Z,50.76
2022-08-31T19:09:26.433Z,50.96
2022-08-31T19:14:34.374Z,51.05
2022-08-31T19:19:37.940Z,50.61
2022-08-31T19:24:41.043Z,50.58
2022-08-31T19:29:46.517Z,50.81
2022-08-31T19:34:49.694Z,50.72
2022-08-31T19:39:53.024Z,50.26
2022-08-31T19:45:22.719Z,50.26
2022-08-31T19:50:19.728Z,49.71
2022-08-31T19:55:22.636Z,49.44
2022-08-31T20:00:25.591Z,49.75
2022-08-31T20:05:28.580Z,50.15
2022-08-31T20:10:31.442Z,49.96
2022-08-31T20:15:42.040Z,49.90
2022-08-31T20:20:48.546Z,49.71
2022-08-31T20:25:53.304Z,49.94
2022-08-31T20:30:59.289Z,49.54
2022-08-31T20:36:22.711Z,49.65
2022-08-31T20:41:29.997Z,49.88
2022-08-31T20:46:51.204Z,49.87
2022-08-31T20:51:56.383Z,50.12
2022-08-31T20:57:02.189Z,49.93
2022-08-31T21:02:07.695Z,49.92
2022-08-31T21:07:12.594Z,49.79
2022-08-31T21:12:18.145Z,49.23
2022-08-31T21:17:22.654Z,49.55
2022-08-31T21:22:27.713Z,49.52
2022-08-31T21:27:31.186Z,49.51
2022-08-31T21:32:34.397Z,49.70
2022-08-31T21:37:37.819Z,50.13
2022-08-31T21:42:40.728Z,50.70
2022-08-31T21:47:43.542Z,50.96
2022-08-31T21:52:46.445Z,50.59
2022-08-31T21:57:49.463Z,50.06
2022-08-31T22:02:54.869Z,50.01
2022-08-31T22:07:57.934Z,49.53
2022-08-31T22:13:01.121Z,49.66
2022-08-31T22:18:46.135Z,48.75
2022-08-31T22:23:32.476Z,49.17
2022-08-31T22:28:35.363Z,49.48
2022-08-31T22:33:39.522Z,51.61
2022-08-31T22:38:51.436Z,52.74
2022-08-31T22:43:54.297Z,53.81
2022-08-31T22:48:57.969Z,53.95
2022-08-31T22:54:00.868Z,54.80
2022-08-31T22:59:27.733Z,54.40
2022-08-31T23:04:33.834Z,54.46
2022-08-31T23:09:36.688Z,56.44
2022-08-31T23:14:42.175Z,57.81
2022-08-31T23:19:46.733Z,59.58
2022-08-31T23:24:51.817Z,60.86
2022-08-31T23:29:58.128Z,61.76
2022-08-31T23:35:01.568Z,62.79
2022-08-31T23:40:06.282Z,63.96
2022-08-31T23:45:10.207Z,64.64
2022-08-31T23:50:14.803Z,65.59
2022-08-31T23:55:19.163Z,66.71
